Time;durP1;ratioP1;P1;durP2;ratioP2;P2;SDS_P1;SDS_P2;PMS_P1;PMS_P2;Temp;Humidity;BMP_temperature;BMP_pressure;BME280_temperature;BME280_humidity;BME280_pressure;Samples;Min_cycle;Max_cycle;Signal;HPM_P1;HPM_P2
2022/09/15 00:01:56;;;;;;;;;;;;;;;-144.99;100.00;52272.81;5046722;28;19935;-72
2022/09/15 00:04:23;;;;;;;;;;;;;;;-144.99;100.00;52276.88;5041814;28;20461;-72
2022/09/15 00:06:49;;;;;;;;;;;;;;;-144.99;100.00;52297.25;5041166;28;19928;-72
2022/09/15 00:09:15;;;;;;;;;;;;;;;-144.99;100.00;52289.13;5041903;28;19925;-71
2022/09/15 00:11:41;;;;;;;;;;;;;;;-144.99;100.00;52321.72;5041572;28;19936;-72
2022/09/15 00:14:08;;;;;;;;;;;;;;;-144.99;100.00;52325.81;5040776;28;20260;-71
2022/09/15 00:16:34;;;;;;;;;;;;;;;-144.99;100.00;52313.56;5041726;28;20486;-71
2022/09/15 00:19:02;;;;;;;;;;;;;;;-144.99;100.00;52305.41;5041845;28;19925;-71
2022/09/15 00:21:30;;;;;;;;;;;;;;;-144.99;100.00;52309.50;5045371;28;19939;-72
2022/09/15 00:23:57;;;;;;;;;;;;;;;-144.99;100.00;52313.56;5038643;28;19925;-71
2022/09/15 00:26:24;;;;;;;;;;;;;;;-144.99;100.00;52321.72;5046276;28;19925;-71
2022/09/15 00:28:51;;;;;;;;;;;;;;;-144.99;100.00;52280.97;5044546;28;19947;-72
2022/09/15 00:31:18;;;;;;;;;;;;;;;-144.99;100.00;52280.97;5038485;28;20039;-71
2022/09/15 00:33:46;;;;;;;;;;;;;;;-144.99;100.00;52285.03;5038330;28;19935;-71
2022/09/15 00:36:14;;;;;;;;;;;;;;;-144.99;100.00;52317.66;5048903;28;19931;-72
2022/09/15 00:38:41;;;;;;;;;;;;;;;-144.99;100.00;52293.19;5052844;28;20311;-71
2022/09/15 00:41:08;;;;;;;;;;;;;;;-144.99;100.00;52278.91;5048471;28;20356;-71
2022/09/15 00:43:42;;;;;;;;;;;;;;;-144.99;100.00;52293.19;5043837;28;19925;-72
2022/09/15 00:46:09;;;;;;;;;;;;;;;-144.99;100.00;52289.13;5046562;28;19940;-71
2022/09/15 00:48:36;;;;;;;;;;;;;;;-144.99;100.00;52303.38;5058227;28;20328;-71
2022/09/15 00:51:03;;;;;;;;;;;;;;;-144.99;100.00;52280.97;5053021;28;20468;-71
2022/09/15 00:53:31;;;;;;;;;;;;;;;-144.99;100.00;52262.63;5052123;28;20343;-71
2022/09/15 00:55:58;;;;;;;;;;;;;;;-144.99;100.00;52340.06;5039924;28;19935;-71
2022/09/15 00:58:27;;;;;;;;;;;;;;;-144.99;100.00;52303.38;5050659;28;19925;-71
2022/09/15 01:00:56;;;;;;;;;;;;;;;-144.99;100.00;52299.31;5045983;28;19936;-73
2022/09/15 01:03:23;;;;;;;;;;;;;;;-144.99;100.00;52264.66;5044201;28;20447;-73
2022/09/15 01:05:53;;;;;;;;;;;;;;;-144.99;100.00;52333.94;5037684;28;19935;-73
2022/09/15 01:08:25;;;;;;;;;;;;;;;-144.99;100.00;52309.50;5044719;28;19979;-74
2022/09/15 01:10:53;;;;;;;;;;;;;;;-144.99;100.00;52321.72;5044074;28;19924;-74
2022/09/15 01:13:19;;;;;;;;;;;;;;;-144.99;100.00;52276.88;5040592;28;19932;-73
2022/09/15 01:15:52;;;;;;;;;;;;;;;-144.99;100.00;52291.16;5043044;28;19933;-71
2022/09/15 01:18:20;;;;;;;;;;;;;;;-144.99;100.00;52321.72;5038451;28;20304;-72
2022/09/15 01:20:56;;;;;;;;;;;;;;;-144.99;100.00;52301.34;5035714;28;19924;-72
2022/09/15 01:23:41;;;;;;;;;;;;;;;-144.99;100.00;52268.72;5044904;28;19933;-72
2022/09/15 01:26:23;;;;;;;;;;;;;;;-144.99;100.00;52285.03;5033536;28;19933;-72
2022/09/15 01:29:02;;;;;;;;;;;;;;;-144.99;100.00;52293.19;5041674;28;20019;-72
2022/09/15 01:31:35;;;;;;;;;;;;;;;-144.99;100.00;52313.56;5034315;28;20293;-72
2022/09/15 01:34:04;;;;;;;;;;;;;;;-144.99;100.00;52301.34;5039881;28;19944;-71
2022/09/15 01:36:36;;;;;;;;;;;;;;;-144.99;100.00;52293.19;5040361;28;19932;-71
2022/09/15 01:39:04;;;;;;;;;;;;;;;-144.99;100.00;52268.72;5048823;28;19929;-71
2022/09/15 01:41:34;;;;;;;;;;;;;;;-144.99;100.00;52280.97;5036731;28;19928;-71
2022/09/15 01:44:04;;;;;;;;;;;;;;;-144.99;100.00;52309.50;5041296;28;19924;-71
2022/09/15 01:46:34;;;;;;;;;;;;;;;-144.99;100.00;52309.50;5041717;28;19928;-73
2022/09/15 01:49:02;;;;;;;;;;;;;;;-144.99;100.00;52309.50;5046249;28;19929;-72
2022/09/15 01:51:30;;;;;;;;;;;;;;;-144.99;100.00;52285.03;5043431;28;19935;-72
2022/09/15 01:53:58;;;;;;;;;;;;;;;-144.99;100.00;52295.22;5039281;28;19936;-72
2022/09/15 01:56:25;;;;;;;;;;;;;;;-144.99;100.00;52289.13;5031722;28;19925;-74
2022/09/15 01:58:51;;;;;;;;;;;;;;;-144.99;100.00;52264.66;5044549;28;19932;-72
2022/09/15 02:01:21;;;;;;;;;;;;;;;-144.99;100.00;52305.41;5035560;28;19929;-72
2022/09/15 02:03:54;;;;;;;;;;;;;;;-144.99;100.00;52317.66;5034671;28;20302;-72
2022/09/15 02:06:22;;;;;;;;;;;;;;;-144.99;100.00;52309.50;5037202;28;19925;-72
2022/09/15 02:08:51;;;;;;;;;;;;;;;-144.99;100.00;52268.72;5044399;28;19929;-72
2022/09/15 02:11:19;;;;;;;;;;;;;;;-144.99;100.00;52270.78;5038362;28;19929;-72
2022/09/15 02:13:50;;;;;;;;;;;;;;;-144.99;100.00;52325.81;5041881;28;19932;-71
2022/09/15 02:16:18;;;;;;;;;;;;;;;-144.99;100.00;52258.53;5041054;28;19932;-72
2022/09/15 02:18:50;;;;;;;;;;;;;;;-144.99;100.00;52287.06;5040169;28;19929;-71
2022/09/15 02:21:18;;;;;;;;;;;;;;;-144.99;100.00;52305.41;5039887;28;19935;-70
2022/09/15 02:23:49;;;;;;;;;;;;;;;-144.99;100.00;52289.13;5040418;28;19929;-71
2022/09/15 02:26:19;;;;;;;;;;;;;;;-144.99;100.00;52325.81;5041393;28;19972;-70
2022/09/15 02:28:46;;;;;;;;;;;;;;;-144.99;100.00;52268.72;5038361;28;19929;-71
2022/09/15 02:31:14;;;;;;;;;;;;;;;-144.99;100.00;52321.72;5038240;28;19928;-71
2022/09/15 02:33:43;;;;;;;;;;;;;;;-144.99;100.00;52295.22;5042949;28;20115;-71
2022/09/15 02:36:12;;;;;;;;;;;;;;;-144.99;100.00;52276.88;5045540;28;19925;-71
2022/09/15 02:38:43;;;;;;;;;;;;;;;-144.99;100.00;52297.25;5034711;28;19925;-72
2022/09/15 02:41:09;;;;;;;;;;;;;;;-144.99;100.00;52276.88;5040551;28;19928;-71
2022/09/15 02:43:43;;;;;;;;;;;;;;;-144.99;100.00;52301.34;5043535;28;20392;-73
2022/09/15 02:46:10;;;;;;;;;;;;;;;-144.99;100.00;52272.81;5040939;28;19925;-72
2022/09/15 02:48:36;;;;;;;;;;;;;;;-144.99;100.00;52321.72;5041360;28;19933;-72
2022/09/15 02:51:02;;;;;;;;;;;;;;;-144.99;100.00;52276.88;5040777;28;19928;-73
2022/09/15 02:53:30;;;;;;;;;;;;;;;-144.99;100.00;52280.97;5035436;28;19929;-72
2022/09/15 02:55:57;;;;;;;;;;;;;;;-144.99;100.00;52244.28;5043078;28;19925;-72
2022/09/15 02:58:23;;;;;;;;;;;;;;;-144.99;100.00;52280.97;5044636;28;19925;-73
2022/09/15 03:00:50;;;;;;;;;;;;;;;-144.99;100.00;52285.03;5044537;28;20063;-73
2022/09/15 03:03:17;;;;;;;;;;;;;;;-144.99;100.00;52293.19;5044532;28;19936;-73
2022/09/15 03:05:44;;;;;;;;;;;;;;;-144.99;100.00;52297.25;5044451;28;19940;-73
2022/09/15 03:08:10;;;;;;;;;;;;;;;-144.99;100.00;52293.19;5040386;28;19951;-72
2022/09/15 03:10:38;;;;;;;;;;;;;;;-144.99;100.00;52301.34;5047342;28;19979;-73
2022/09/15 03:13:04;;;;;;;;;;;;;;;-144.99;100.00;52285.03;5048726;28;19925;-74
2022/09/15 03:15:32;;;;;;;;;;;;;;;-144.99;100.00;52301.34;5050861;28;20423;-71
2022/09/15 03:17:58;;;;;;;;;;;;;;;-144.99;100.00;52309.50;5044297;28;19999;-71
2022/09/15 03:20:26;;;;;;;;;;;;;;;-144.99;100.00;52280.97;5098813;22;19932;-79
2022/09/15 03:22:53;;;;;;;;;;;;;;;-144.99;100.00;52321.72;5082984;28;19984;-76
2022/09/15 03:25:19;;;;;;;;;;;;;;;-144.99;100.00;52285.03;5082609;28;19938;-82
2022/09/15 03:27:47;;;;;;;;;;;;;;;-144.99;100.00;52293.19;5082478;28;19924;-81
2022/09/15 03:30:14;;;;;;;;;;;;;;;-144.99;100.00;52289.13;5084133;28;19924;-81
2022/09/15 03:32:40;;;;;;;;;;;;;;;-144.99;100.00;52280.97;5070693;28;19979;-82
2022/09/15 03:35:07;;;;;;;;;;;;;;;-144.99;100.00;52333.94;5081119;28;20036;-82
2022/09/15 03:37:34;;;;;;;;;;;;;;;-144.99;100.00;52285.03;5076960;28;20322;-82
2022/09/15 03:40:00;;;;;;;;;;;;;;;-144.99;100.00;52293.19;5080155;28;19928;-78
2022/09/15 03:42:27;;;;;;;;;;;;;;;-144.99;100.00;52283.00;5072459;28;19960;-80
2022/09/15 03:44:54;;;;;;;;;;;;;;;-144.99;100.00;52293.19;5089457;28;20026;-78
2022/09/15 03:47:21;;;;;;;;;;;;;;;-144.99;100.00;52329.88;5069210;28;19932;-78
2022/09/15 03:49:47;;;;;;;;;;;;;;;-144.99;100.00;52313.56;5071951;28;20466;-78
2022/09/15 03:52:14;;;;;;;;;;;;;;;-144.99;100.00;52301.34;5070556;28;20402;-78
2022/09/15 03:54:40;;;;;;;;;;;;;;;-144.99;100.00;52293.19;5066571;28;20316;-78
2022/09/15 03:57:07;;;;;;;;;;;;;;;-144.99;100.00;52305.41;5068946;28;19942;-78
2022/09/15 03:59:33;;;;;;;;;;;;;;;-144.99;100.00;52293.19;5065008;28;19955;-75
2022/09/15 04:02:01;;;;;;;;;;;;;;;-144.99;100.00;52289.13;5065997;28;19928;-76
2022/09/15 04:04:27;;;;;;;;;;;;;;;-144.99;100.00;52289.13;5064661;28;19935;-75
2022/09/15 04:06:54;;;;;;;;;;;;;;;-144.99;100.00;52268.72;5067275;28;19975;-77
2022/09/15 04:09:20;;;;;;;;;;;;;;;-144.99;100.00;52317.66;5067562;28;20248;-74
2022/09/15 04:11:46;;;;;;;;;;;;;;;-144.99;100.00;52289.13;5067598;28;19931;-78
2022/09/15 04:14:13;;;;;;;;;;;;;;;-144.99;100.00;52301.34;5060650;28;19928;-76
2022/09/15 04:16:39;;;;;;;;;;;;;;;-144.99;100.00;52305.41;5061809;28;19970;-80
2022/09/15 04:19:07;;;;;;;;;;;;;;;-144.99;100.00;52315.59;5068055;28;19924;-74
2022/09/15 04:21:33;;;;;;;;;;;;;;;-144.99;100.00;52287.06;5067055;28;20041;-76
2022/09/15 04:24:00;;;;;;;;;;;;;;;-144.99;100.00;52285.03;5069200;28;20318;-75
2022/09/15 04:26:30;;;;;;;;;;;;;;;-144.99;100.00;52236.13;5062314;28;19928;-75
2022/09/15 04:28:56;;;;;;;;;;;;;;;-144.99;100.00;52325.81;5073273;28;19924;-78
2022/09/15 04:31:23;;;;;;;;;;;;;;;-144.99;100.00;52329.88;5064290;28;19940;-75
2022/09/15 04:33:52;;;;;;;;;;;;;;;-144.99;100.00;52309.50;5063675;28;20286;-75
2022/09/15 04:36:20;;;;;;;;;;;;;;;-144.99;100.00;52289.13;5061685;28;19928;-75
2022/09/15 04:38:47;;;;;;;;;;;;;;;-144.99;100.00;52297.25;5064939;28;19924;-76
2022/09/15 04:41:14;;;;;;;;;;;;;;;-144.99;100.00;52305.41;5066412;28;19935;-75
2022/09/15 04:43:40;;;;;;;;;;;;;;;-144.99;100.00;52285.03;5064660;28;19932;-74
2022/09/15 04:46:07;;;;;;;;;;;;;;;-144.99;100.00;52272.81;5055664;28;20393;-75
2022/09/15 04:48:34;;;;;;;;;;;;;;;-144.99;100.00;52301.34;5067103;28;19925;-75
2022/09/15 04:51:01;;;;;;;;;;;;;;;-144.99;100.00;52309.50;5071068;28;19928;-76
2022/09/15 04:53:29;;;;;;;;;;;;;;;-144.99;100.00;52342.09;5071189;28;20307;-75
2022/09/15 04:56:01;;;;;;;;;;;;;;;-144.99;100.00;52305.41;5060262;28;19928;-75
2022/09/15 04:58:27;;;;;;;;;;;;;;;-144.99;100.00;52297.25;5064663;28;19931;-74
2022/09/15 05:00:53;;;;;;;;;;;;;;;-144.99;100.00;52319.69;5063897;28;20271;-73
2022/09/15 05:03:20;;;;;;;;;;;;;;;-144.99;100.00;52309.50;5066351;28;19924;-75
2022/09/15 05:05:47;;;;;;;;;;;;;;;-144.99;100.00;52333.94;5066417;28;19924;-76
2022/09/15 05:08:13;;;;;;;;;;;;;;;-144.99;100.00;52305.41;5068393;28;19925;-74
2022/09/15 05:10:41;;;;;;;;;;;;;;;-144.99;100.00;52297.25;5064138;28;19936;-77
2022/09/15 05:13:08;;;;;;;;;;;;;;;-144.99;100.00;52280.97;5067810;28;19935;-74
2022/09/15 05:15:34;;;;;;;;;;;;;;;-144.99;100.00;52297.25;4358823;28;10000740;-75
2022/09/15 05:18:01;;;;;;;;;;;;;;;-144.99;100.00;52323.75;5054711;28;19929;-75
2022/09/15 05:20:28;;;;;;;;;;;;;;;-144.99;100.00;52280.97;5063542;28;19928;-73
2022/09/15 05:22:54;;;;;;;;;;;;;;;-144.99;100.00;52289.13;5066216;28;19958;-76
2022/09/15 05:25:21;;;;;;;;;;;;;;;-144.99;100.00;52287.06;5062786;28;20398;-75
2022/09/15 05:27:48;;;;;;;;;;;;;;;-144.99;100.00;52313.56;5059113;28;20544;-76
2022/09/15 05:30:16;;;;;;;;;;;;;;;-144.99;100.00;52309.50;5061078;28;19951;-75
2022/09/15 05:32:42;;;;;;;;;;;;;;;-144.99;100.00;52285.03;5052414;28;19928;-74
2022/09/15 05:35:08;;;;;;;;;;;;;;;-144.99;100.00;52321.72;5056496;28;19940;-72
2022/09/15 05:37:34;;;;;;;;;;;;;;;-144.99;100.00;52297.25;5054967;28;20139;-74
2022/09/15 05:40:01;;;;;;;;;;;;;;;-144.99;100.00;52285.03;5049780;28;19932;-72
2022/09/15 05:42:30;;;;;;;;;;;;;;;-144.99;100.00;52327.84;5058536;28;20460;-73
2022/09/15 05:44:58;;;;;;;;;;;;;;;-144.99;100.00;52317.66;5050767;28;20083;-75
2022/09/15 05:47:24;;;;;;;;;;;;;;;-144.99;100.00;52305.41;5063406;28;20379;-72
2022/09/15 05:49:52;;;;;;;;;;;;;;;-144.99;100.00;52342.09;5055546;28;20133;-74
2022/09/15 05:52:19;;;;;;;;;;;;;;;-144.99;100.00;52309.50;5060011;28;20482;-73
2022/09/15 05:54:45;;;;;;;;;;;;;;;-144.99;100.00;52309.50;5046936;28;20023;-71
2022/09/15 05:57:11;;;;;;;;;;;;;;;-144.99;100.00;52305.41;5059254;28;19935;-74
2022/09/15 05:59:38;;;;;;;;;;;;;;;-144.99;100.00;52317.66;5056327;28;19928;-72
2022/09/15 06:02:06;;;;;;;;;;;;;;;-144.99;100.00;52325.81;5059553;28;20061;-71
2022/09/15 06:04:33;;;;;;;;;;;;;;;-144.99;100.00;52276.88;5052672;28;19940;-74
2022/09/15 06:06:59;;;;;;;;;;;;;;;-144.99;99.88;52285.03;5062128;28;20027;-76
2022/09/15 06:09:25;;;;;;;;;;;;;;;-144.99;100.00;52303.38;5059256;28;19936;-75
2022/09/15 06:11:52;;;;;;;;;;;;;;;-144.99;98.98;52317.66;5059074;28;19978;-73
2022/09/15 06:14:18;;;;;;;;;;;;;;;-144.99;98.46;52305.41;5056220;28;20503;-76
2022/09/15 06:16:44;;;;;;;;;;;;;;;-144.99;98.48;52276.88;5061547;28;19932;-76
2022/09/15 06:19:12;;;;;;;;;;;;;;;-144.99;98.65;52313.56;5063683;28;19925;-75
2022/09/15 06:21:39;;;;;;;;;;;;;;;-144.99;99.69;52313.56;5064823;28;19950;-74
2022/09/15 06:24:05;;;;;;;;;;;;;;;-144.99;100.00;52280.97;5059613;28;19929;-72
2022/09/15 06:26:32;;;;;;;;;;;;;;;-144.99;100.00;52309.50;5055704;28;19928;-76
2022/09/15 06:28:59;;;;;;;;;;;;;;;-144.99;100.00;52301.34;5064059;28;20280;-75
2022/09/15 06:31:26;;;;;;;;;;;;;;;-144.99;100.00;52305.41;5058300;28;19924;-76
2022/09/15 06:33:54;;;;;;;;;;;;;;;-144.99;100.00;52325.81;5065103;28;19929;-75
2022/09/15 06:36:23;;;;;;;;;;;;;;;-144.99;100.00;52313.56;5051749;28;20627;-72
2022/09/15 06:38:50;;;;;;;;;;;;;;;-144.99;100.00;52303.38;5062400;28;20035;-75
2022/09/15 06:41:17;;;;;;;;;;;;;;;-144.99;100.00;52329.88;5061164;28;19928;-74
2022/09/15 06:43:44;;;;;;;;;;;;;;;-144.99;100.00;52321.72;5067149;28;20382;-75
2022/09/15 06:46:11;;;;;;;;;;;;;;;-144.99;100.00;52264.66;5057818;28;19931;-72
2022/09/15 06:48:38;;;;;;;;;;;;;;;-144.99;100.00;52258.53;5068909;28;19948;-74
2022/09/15 06:51:06;;;;;;;;;;;;;;;-144.99;98.84;52268.72;5064504;28;20381;-75
2022/09/15 06:53:35;;;;;;;;;;;;;;;-144.99;98.67;52289.13;5067913;28;20302;-72
2022/09/15 06:56:02;;;;;;;;;;;;;;;-144.99;95.28;52252.44;5061741;28;20040;-73
2022/09/15 06:58:28;;;;;;;;;;;;;;;-144.99;93.44;52276.88;5067740;28;19970;-75
2022/09/15 07:00:54;;;;;;;;;;;;;;;-144.99;92.31;52262.63;5062856;28;19928;-72
2022/09/15 07:03:21;;;;;;;;;;;;;;;-144.99;92.70;52280.97;5068889;28;19932;-74
2022/09/15 07:05:47;;;;;;;;;;;;;;;-144.99;92.77;52240.19;5062002;28;19937;-74
2022/09/15 07:08:13;;;;;;;;;;;;;;;-144.99;91.40;52293.19;5064196;28;20379;-74
2022/09/15 07:10:44;;;;;;;;;;;;;;;-144.99;91.24;52256.50;5057191;28;19928;-76
2022/09/15 07:13:10;;;;;;;;;;;;;;;-144.99;90.57;52276.88;5065514;28;19971;-75
2022/09/15 07:15:37;;;;;;;;;;;;;;;-144.99;90.56;52256.50;5056613;28;19935;-72
2022/09/15 07:18:04;;;;;;;;;;;;;;;-144.99;89.07;52250.38;5060443;28;20032;-75
2022/09/15 07:20:30;;;;;;;;;;;;;;;-144.99;86.60;52258.53;5065398;28;19936;-74
2022/09/15 07:22:57;;;;;;;;;;;;;;;-144.99;84.82;52225.94;5068536;28;19928;-76
2022/09/15 07:25:23;;;;;;;;;;;;;;;-144.99;82.87;52289.13;5065342;28;19935;-72
2022/09/15 07:27:51;;;;;;;;;;;;;;;-144.99;82.75;52252.44;5062837;28;19929;-76
2022/09/15 07:30:17;;;;;;;;;;;;;;;-144.99;81.37;52244.28;5062013;28;19928;-76
2022/09/15 07:32:43;;;;;;;;;;;;;;;-144.99;80.41;52260.56;5063399;28;19929;-76
2022/09/15 07:35:10;;;;;;;;;;;;;;;-144.99;79.26;52252.44;5066403;28;20002;-77
2022/09/15 07:37:36;;;;;;;;;;;;;;;-144.99;77.96;52280.97;5065443;28;20284;-76
2022/09/15 07:40:03;;;;;;;;;;;;;;;-144.99;78.06;52219.81;5065064;28;19935;-76
2022/09/15 07:42:29;;;;;;;;;;;;;;;-144.99;77.76;52248.34;5066233;28;19966;-76
2022/09/15 07:44:57;;;;;;;;;;;;;;;-144.99;77.51;52260.56;5073043;28;19934;-76
2022/09/15 07:47:23;;;;;;;;;;;;;;;-144.99;77.42;52238.16;5061074;28;20300;-75
2022/09/15 07:49:50;;;;;;;;;;;;;;;-144.99;76.70;52219.81;5068206;28;20019;-76
2022/09/15 07:52:16;;;;;;;;;;;;;;;-144.99;76.65;52223.88;5064882;28;20264;-77
2022/09/15 07:54:43;;;;;;;;;;;;;;;-144.99;76.97;52252.44;5067458;28;19928;-77
2022/09/15 07:57:09;;;;;;;;;;;;;;;-144.99;76.22;52252.44;5054163;28;19933;-74
2022/09/15 07:59:35;;;;;;;;;;;;;;;-144.99;76.44;52203.50;5064954;28;20207;-73
2022/09/15 08:02:03;;;;;;;;;;;;;;;-144.99;73.91;52223.88;5061310;28;20287;-74
2022/09/15 08:04:29;;;;;;;;;;;;;;;-144.99;72.10;52203.50;5063711;28;19928;-75
2022/09/15 08:06:55;;;;;;;;;;;;;;;-144.99;71.44;52197.41;5053564;28;19929;-72
2022/09/15 08:09:22;;;;;;;;;;;;;;;-144.99;69.29;52185.16;5054773;28;19928;-74
2022/09/15 08:11:48;;;;;;;;;;;;;;;-144.99;67.02;52199.44;5058444;28;20438;-76
2022/09/15 08:14:14;;;;;;;;;;;;;;;-144.99;63.86;52203.50;5060763;28;20398;-73
2022/09/15 08:16:41;;;;;;;;;;;;;;;-144.99;60.73;52162.75;5054627;28;19935;-77
2022/09/15 08:19:08;;;;;;;;;;;;;;;-144.99;60.45;52183.13;5063800;28;20089;-74
2022/09/15 08:21:35;;;;;;;;;;;;;;;-144.99;58.83;52207.59;5063608;28;19946;-74
2022/09/15 08:24:01;;;;;;;;;;;;;;;-144.99;57.62;52181.09;5067305;28;19928;-75
2022/09/15 08:26:29;;;;;;;;;;;;;;;-144.99;57.24;52191.28;5063254;28;19928;-74
2022/09/15 08:28:56;;;;;;;;;;;;;;;-144.99;55.55;52191.28;5060670;28;20034;-75
2022/09/15 08:31:23;;;;;;;;;;;;;;;-144.99;55.08;52158.66;5065833;28;20427;-75
2022/09/15 08:33:51;;;;;;;;;;;;;;;-144.99;53.80;52138.28;5070287;28;19935;-76
2022/09/15 08:36:18;;;;;;;;;;;;;;;-144.99;53.50;52174.97;5074662;28;19928;-76
2022/09/15 08:38:45;;;;;;;;;;;;;;;-144.99;51.80;52130.13;5065323;28;21486;-76
2022/09/15 08:41:14;;;;;;;;;;;;;;;-144.99;51.61;52191.28;5067589;28;19929;-74
2022/09/15 08:43:44;;;;;;;;;;;;;;;-144.99;50.05;52195.34;5061091;28;20284;-74
2022/09/15 08:46:13;;;;;;;;;;;;;;;-144.99;50.63;52213.69;5061310;28;19928;-72
2022/09/15 08:48:42;;;;;;;;;;;;;;;-144.99;50.92;52170.91;5062186;28;20288;-76
2022/09/15 08:51:12;;;;;;;;;;;;;;;-144.99;52.30;52181.09;5065063;28;19944;-76
2022/09/15 08:53:42;;;;;;;;;;;;;;;-144.99;52.31;52201.47;5066311;28;19935;-75
2022/09/15 08:56:13;;;;;;;;;;;;;;;-144.99;53.59;52227.97;5062306;28;19938;-75
2022/09/15 08:58:40;;;;;;;;;;;;;;;-144.99;55.17;52219.81;5057314;28;20009;-77
2022/09/15 09:01:13;;;;;;;;;;;;;;;-144.99;55.50;52215.75;5064372;28;20430;-74
2022/09/15 09:03:52;;;;;;;;;;;;;;;-144.99;56.40;52240.19;5064320;28;19925;-75
2022/09/15 09:06:23;;;;;;;;;;;;;;;-144.99;56.94;52276.88;5060756;28;19936;-74
2022/09/15 09:08:57;;;;;;;;;;;;;;;-144.99;59.84;52252.44;5064297;28;19932;-74
2022/09/15 09:11:29;;;;;;;;;;;;;;;-144.99;62.21;52246.31;5061358;28;19928;-75
2022/09/15 09:14:02;;;;;;;;;;;;;;;-144.99;64.70;52289.13;5063956;28;20527;-76
2022/09/15 09:16:49;;;;;;;;;;;;;;;-144.99;67.61;52301.34;5047550;28;19929;-76
2022/09/15 09:19:24;;;;;;;;;;;;;;;-144.99;69.20;52303.38;5054370;28;19928;-75
2022/09/15 09:21:54;;;;;;;;;;;;;;;-144.99;74.25;52317.66;5072810;22;19936;-75
2022/09/15 09:24:26;;;;;;;;;;;;;;;-144.99;75.61;52293.19;5081814;28;19929;-75
2022/09/15 09:26:55;;;;;;;;;;;;;;;-144.99;73.23;52293.19;5081612;28;20023;-74
2022/09/15 09:29:26;;;;;;;;;;;;;;;-144.99;72.80;52248.34;5072496;28;19932;-73
2022/09/15 09:31:54;;;;;;;;;;;;;;;-144.99;69.61;52272.81;5067928;28;19928;-73
2022/09/15 09:34:26;;;;;;;;;;;;;;;-144.99;69.27;52223.88;5074690;28;20241;-73
2022/09/15 09:36:54;;;;;;;;;;;;;;;-144.99;68.42;52223.88;5085332;28;19922;-74
2022/09/15 09:39:21;;;;;;;;;;;;;;;-144.99;65.46;52234.09;5085741;28;19968;-74
2022/09/15 09:41:49;;;;;;;;;;;;;;;-144.99;62.33;52195.34;5083098;28;19972;-72
2022/09/15 09:44:15;;;;;;;;;;;;;;;-144.99;59.42;52166.81;5084952;28;19951;-75
2022/09/15 09:46:43;;;;;;;;;;;;;;;-144.99;56.67;52134.22;5075918;28;20038;-74
2022/09/15 09:49:15;;;;;;;;;;;;;;;-144.99;51.14;52109.75;5083676;28;19928;-74
2022/09/15 09:51:50;;;;;;;;;;;;;;;-144.99;47.99;52132.19;5080272;28;19931;-74
2022/09/15 09:54:19;;;;;;;;;;;;;;;-144.99;46.61;52191.28;5082943;28;19916;-74
2022/09/15 09:56:46;;;;;;;;;;;;;;;-144.99;47.98;52174.97;5073561;28;20149;-73
2022/09/15 09:59:27;;;;;;;;;;;;;;;-144.99;48.04;52219.81;5069296;28;19974;-74
2022/09/15 10:02:05;;;;;;;;;;;;;;;-144.99;48.75;52179.06;5050196;28;19968;-74
2022/09/15 10:04:32;;;;;;;;;;;;;;;-144.99;49.35;52113.84;5057064;28;19924;-74
2022/09/15 10:06:59;;;;;;;;;;;;;;;-144.99;48.23;52134.22;5065510;28;19939;-74
2022/09/15 10:09:25;;;;;;;;;;;;;;;-144.99;47.14;52121.97;5063873;28;20019;-75
2022/09/15 10:11:52;;;;;;;;;;;;;;;-144.99;44.70;52103.66;5056319;28;19932;-74
2022/09/15 10:14:20;;;;;;;;;;;;;;;-144.99;43.37;52126.06;5061379;28;19939;-75
2022/09/15 10:16:57;;;;;;;;;;;;;;;-144.99;42.70;52073.06;5054624;28;19928;-74
2022/09/15 10:19:25;;;;;;;;;;;;;;;-144.99;41.72;52117.91;5074592;28;19928;-74
2022/09/15 10:21:51;;;;;;;;;;;;;;;-144.99;39.74;52054.72;5061952;28;19928;-73
2022/09/15 10:24:29;;;;;;;;;;;;;;;-144.99;38.64;52036.38;5068925;28;19929;-74
2022/09/15 10:27:05;;;;;;;;;;;;;;;-144.99;37.71;52042.50;5066220;28;20435;-74
2022/09/15 10:29:36;;;;;;;;;;;;;;;-144.99;36.85;51995.63;5074240;28;19928;-73
2022/09/15 10:32:15;;;;;;;;;;;;;;;-144.99;36.46;52032.31;5065478;28;20457;-73
2022/09/15 10:34:43;;;;;;;;;;;;;;;-144.99;36.28;51987.47;5091929;28;19953;-73
2022/09/15 10:37:15;;;;;;;;;;;;;;;-144.99;36.33;51948.75;5086929;28;19932;-73
2022/09/15 10:39:49;;;;;;;;;;;;;;;-144.99;36.21;52073.06;5088856;28;19924;-74
2022/09/15 10:42:20;;;;;;;;;;;;;;;-144.99;35.99;51946.72;5068846;28;19928;-74
2022/09/15 10:44:52;;;;;;;;;;;;;;;-144.99;36.14;52003.78;5070586;28;19929;-74
2022/09/15 10:47:26;;;;;;;;;;;;;;;-144.99;35.00;51926.34;5065016;28;19928;-73
2022/09/15 10:50:03;;;;;;;;;;;;;;;-144.99;36.12;51946.72;5069612;28;20396;-74
2022/09/15 10:52:35;;;;;;;;;;;;;;;-144.99;36.97;52093.44;5062064;28;19932;-74
2022/09/15 10:55:16;;;;;;;;;;;;;;;-144.99;37.62;52158.66;5067907;28;19951;-74
2022/09/15 10:57:55;;;;;;;;;;;;;;;-144.99;38.53;52040.47;5063321;28;19939;-74
2022/09/15 11:00:22;;;;;;;;;;;;;;;-144.99;38.40;52081.22;5065904;28;19928;-75
2022/09/15 11:03:06;;;;;;;;;;;;;;;-144.99;39.43;52199.44;5056424;28;20022;-74
2022/09/15 11:05:40;;;;;;;;;;;;;;;-144.99;40.27;52234.09;5059983;28;19935;-75
2022/09/15 11:08:18;;;;;;;;;;;;;;;-144.99;41.18;52232.03;5050127;28;19928;-74
2022/09/15 11:10:49;;;;;;;;;;;;;;;-144.99;42.52;52248.34;5069556;28;20416;-74
2022/09/15 11:13:21;;;;;;;;;;;;;;;-144.99;43.05;52028.22;5061309;28;19939;-74
2022/09/15 11:15:55;;;;;;;;;;;;;;;-144.99;43.40;52248.34;5071071;28;19925;-74
2022/09/15 11:18:36;;;;;;;;;;;;;;;-144.99;43.18;52227.97;5067257;28;19932;-74
2022/09/15 11:21:13;;;;;;;;;;;;;;;-144.99;42.66;52032.31;5064410;28;20458;-74
2022/09/15 11:23:42;;;;;;;;;;;;;;;-144.99;40.69;52007.84;5057310;28;19933;-74
2022/09/15 11:26:12;;;;;;;;;;;;;;;-144.99;38.49;51934.50;5063673;28;20345;-73
2022/09/15 11:28:41;;;;;;;;;;;;;;;-144.99;37.36;51893.72;5068200;28;19933;-75
2022/09/15 11:31:13;;;;;;;;;;;;;;;-144.99;37.23;52089.38;5069224;28;20023;-75
2022/09/15 11:33:41;;;;;;;;;;;;;;;-144.99;37.54;52130.13;5065783;28;20343;-74
2022/09/15 11:36:14;;;;;;;;;;;;;;;-144.99;37.91;52016.00;5068756;28;19938;-76
2022/09/15 11:38:46;;;;;;;;;;;;;;;-144.99;37.16;51995.63;5067461;28;19951;-74
2022/09/15 11:41:17;;;;;;;;;;;;;;;-144.99;36.14;51954.88;5065742;28;19928;-73
2022/09/15 11:43:48;;;;;;;;;;;;;;;-144.99;35.53;51914.09;5062354;28;19928;-73
2022/09/15 11:46:18;;;;;;;;;;;;;;;-144.99;35.13;52046.56;5062699;28;19951;-75
2022/09/15 11:48:47;;;;;;;;;;;;;;;-144.99;35.31;51963.03;5066446;28;20060;-73
2022/09/15 11:51:16;;;;;;;;;;;;;;;-144.99;36.06;52093.44;5067284;28;19925;-73
2022/09/15 11:53:45;;;;;;;;;;;;;;;-144.99;36.41;52089.38;5052730;28;19939;-73
2022/09/15 11:56:18;;;;;;;;;;;;;;;-144.99;37.02;52134.22;5066027;28;19936;-72
2022/09/15 11:59:00;;;;;;;;;;;;;;;-144.99;36.46;52117.91;5069561;28;19932;-74
2022/09/15 12:01:29;;;;;;;;;;;;;;;-144.99;36.26;51926.34;5057195;28;19935;-73
2022/09/15 12:04:00;;;;;;;;;;;;;;;-144.99;34.35;51963.03;5068060;28;20019;-73
2022/09/15 12:06:30;;;;;;;;;;;;;;;-144.99;33.86;51991.56;5064540;28;20453;-73
2022/09/15 12:08:59;;;;;;;;;;;;;;;-144.99;33.40;52020.09;5064184;28;19934;-73
2022/09/15 12:11:26;;;;;;;;;;;;;;;-144.99;33.60;51942.63;5059237;28;19939;-74
2022/09/15 12:13:54;;;;;;;;;;;;;;;-144.99;33.30;51950.78;5065228;28;19929;-75
2022/09/15 12:16:21;;;;;;;;;;;;;;;-144.99;33.42;51914.09;5051320;28;19933;-74
2022/09/15 12:18:50;;;;;;;;;;;;;;;-144.99;32.96;51926.34;5057845;28;19925;-74
2022/09/15 12:21:19;;;;;;;;;;;;;;;-144.99;33.49;51981.38;5047415;28;20506;-73
2022/09/15 12:23:52;;;;;;;;;;;;;;;-144.99;33.78;51932.44;5048042;28;20406;-74
2022/09/15 12:26:19;;;;;;;;;;;;;;;-144.99;33.88;51938.56;5054934;28;19936;-73
2022/09/15 12:29:06;;;;;;;;;;;;;;;-144.99;33.16;51877.44;5054857;28;20462;-73